createdAt,value
2023-04-07T00:00:32.405Z,2.00
2023-04-07T00:03:02.381Z,2.75
2023-04-07T00:05:32.633Z,2.55
2023-04-07T00:08:00.528Z,3.45
2023-04-07T00:10:28.435Z,2.50
2023-04-07T00:13:03.408Z,2.22
2023-04-07T00:15:33.913Z,2.88
2023-04-07T00:18:01.911Z,3.75
2023-04-07T00:20:29.832Z,1.75
2023-04-07T00:23:00.830Z,3.03
2023-04-07T00:25:28.770Z,2.03
2023-04-07T00:27:58.016Z,1.60
2023-04-07T00:30:30.174Z,2.15
2023-04-07T00:32:58.179Z,2.30
2023-04-07T00:35:26.167Z,2.03
2023-04-07T00:37:54.317Z,2.58
2023-04-07T00:40:22.946Z,2.42
2023-04-07T00:42:50.821Z,3.10
2023-04-07T00:45:20.082Z,2.00
2023-04-07T00:47:48.086Z,2.83
2023-04-07T00:50:16.148Z,2.20
2023-04-07T00:52:44.256Z,3.25
2023-04-07T00:55:12.251Z,3.00
2023-04-07T00:57:41.653Z,5.07
2023-04-07T01:00:11.318Z,2.50
2023-04-07T01:02:44.329Z,2.15
2023-04-07T01:05:18.013Z,3.05
2023-04-07T01:07:56.817Z,2.67
2023-04-07T01:10:36.410Z,2.42
2023-04-07T01:13:16.280Z,3.80
2023-04-07T01:15:52.776Z,2.45
2023-04-07T01:18:33.510Z,2.47
2023-04-07T01:21:05.746Z,1.60
2023-04-07T01:23:53.216Z,2.58
2023-04-07T01:26:27.243Z,2.88
2023-04-07T01:29:11.285Z,2.83
2023-04-07T01:31:42.182Z,2.60
2023-04-07T01:34:11.686Z,2.58
2023-04-07T01:36:41.542Z,2.30
2023-04-07T01:39:10.573Z,4.03
2023-04-07T01:41:40.921Z,2.50
2023-04-07T01:44:10.346Z,2.38
2023-04-07T01:46:40.757Z,2.45
2023-04-07T01:49:10.088Z,2.95
2023-04-07T01:51:38.468Z,1.60
2023-04-07T01:54:07.651Z,2.50
2023-04-07T01:56:38.453Z,2.50
2023-04-07T01:59:08.060Z,3.47
2023-04-07T02:01:36.332Z,2.03
2023-04-07T02:04:12.473Z,2.47
2023-04-07T02:06:46.751Z,1.73
2023-04-07T02:09:17.247Z,1.92
2023-04-07T02:11:47.012Z,2.50
2023-04-07T02:14:17.678Z,2.33
2023-04-07T02:16:59.629Z,3.10
2023-04-07T02:19:34.614Z,2.72
2023-04-07T02:22:04.145Z,3.00
2023-04-07T02:24:32.171Z,1.70
2023-04-07T02:27:02.025Z,3.47
2023-04-07T02:29:33.122Z,2.45
2023-04-07T02:32:01.012Z,2.33
2023-04-07T02:34:32.099Z,2.00
2023-04-07T02:37:01.010Z,2.97
2023-04-07T02:39:29.089Z,2.40
2023-04-07T02:41:57.043Z,2.42
2023-04-07T02:44:27.304Z,1.70
2023-04-07T02:46:55.208Z,3.08
2023-04-07T02:49:35.258Z,2.60
2023-04-07T02:52:04.809Z,1.90
2023-04-07T02:54:32.706Z,2.85
2023-04-07T02:57:01.596Z,2.03
2023-04-07T02:59:29.618Z,2.53
2023-04-07T03:01:57.748Z,1.90
2023-04-07T03:04:27.385Z,2.00
2023-04-07T03:06:56.528Z,2.08
2023-04-07T03:09:26.330Z,2.83
2023-04-07T03:11:54.383Z,2.08
2023-04-07T03:14:22.404Z,3.08
2023-04-07T03:16:51.686Z,2.53
2023-04-07T03:19:19.791Z,2.03
2023-04-07T03:21:57.116Z,1.45
2023-04-07T03:24:28.614Z,3.38
2023-04-07T03:26:56.469Z,3.13
2023-04-07T03:29:35.294Z,2.65
2023-04-07T03:32:05.125Z,2.65
2023-04-07T03:34:33.468Z,2.60
2023-04-07T03:37:01.383Z,2.10
2023-04-07T03:39:33.464Z,2.85
2023-04-07T03:42:02.776Z,2.22
2023-04-07T03:44:33.385Z,3.90
2023-04-07T03:47:01.913Z,1.98
2023-04-07T03:49:31.410Z,2.47
2023-04-07T03:52:02.911Z,3.45
2023-04-07T03:54:31.023Z,3.22
2023-04-07T03:57:01.382Z,4.28
2023-04-07T03:59:29.405Z,2.67
2023-04-07T04:02:02.348Z,2.30
2023-04-07T04:04:30.542Z,2.92
2023-04-07T04:06:59.113Z,1.67
2023-04-07T04:09:39.505Z,2.00
2023-04-07T04:12:09.007Z,1.38
2023-04-07T04:14:43.423Z,1.80
2023-04-07T04:17:13.064Z,2.30
2023-04-07T04:19:45.712Z,1.67
2023-04-07T04:22:23.849Z,2.35
2023-04-07T04:24:58.053Z,2.72
2023-04-07T04:27:29.321Z,2.53
2023-04-07T04:30:13.104Z,1.83
2023-04-07T04:33:01.592Z,2.38
2023-04-07T04:35:46.371Z,3.13
2023-04-07T04:38:18.085Z,2.13
2023-04-07T04:40:52.826Z,1.90
2023-04-07T04:43:27.452Z,1.90
2023-04-07T04:45:56.888Z,1.88
2023-04-07T04:48:27.837Z,2.00
2023-04-07T04:50:55.693Z,2.67
2023-04-07T04:53:24.022Z,2.33
2023-04-07T04:55:57.399Z,2.30
2023-04-07T04:58:37.429Z,2.50
2023-04-07T05:01:05.673Z,2.53
2023-04-07T05:03:40.503Z,1.52
2023-04-07T05:06:15.705Z,2.45
2023-04-07T05:08:45.045Z,2.28
2023-04-07T05:11:14.567Z,2.15
2023-04-07T05:13:46.184Z,2.33
2023-04-07T05:16:14.507Z,5.13
2023-04-07T05:18:45.581Z,3.25
2023-04-07T05:21:13.573Z,3.30
2023-04-07T05:23:42.339Z,2.28
2023-04-07T05:26:12.068Z,1.90
2023-04-07T05:28:40.873Z,1.90
2023-04-07T05:31:17.060Z,2.55
2023-04-07T05:33:48.505Z,2.95
2023-04-07T05:36:17.410Z,2.83
2023-04-07T05:38:45.669Z,2.05
2023-04-07T05:41:17.421Z,2.50
2023-04-07T05:43:45.379Z,2.60
2023-04-07T05:46:14.340Z,1.52
2023-04-07T05:48:51.688Z,2.55
2023-04-07T05:51:22.010Z,4.05
2023-04-07T05:53:51.700Z,2.22
2023-04-07T05:56:27.522Z,2.28
2023-04-07T05:58:56.836Z,2.28
2023-04-07T06:01:26.848Z,2.20
2023-04-07T06:03:56.447Z,3.33
2023-04-07T06:06:27.789Z,1.73
2023-04-07T06:08:55.684Z,1.98
2023-04-07T06:11:27.479Z,2.78
2023-04-07T06:13:55.441Z,2.00
2023-04-07T06:16:23.447Z,1.70
2023-04-07T06:18:51.459Z,3.03
2023-04-07T06:21:20.880Z,2.88
2023-04-07T06:23:48.982Z,2.03
2023-04-07T06:26:17.689Z,2.08
2023-04-07T06:28:46.270Z,2.15
2023-04-07T06:31:15.656Z,2.20
2023-04-07T06:33:43.635Z,1.92
2023-04-07T06:36:37.530Z,2.65
2023-04-07T06:39:05.695Z,3.05
2023-04-07T06:41:33.598Z,1.65
2023-04-07T06:44:02.222Z,2.55
2023-04-07T06:46:32.768Z,2.03
2023-04-07T06:49:00.670Z,2.15
2023-04-07T06:51:28.594Z,2.83
2023-04-07T06:53:57.831Z,2.78
2023-04-07T06:58:54.269Z,2.65
2023-04-07T07:01:24.127Z,1.83
2023-04-07T07:03:52.419Z,3.08
2023-04-07T07:06:20.598Z,2.90
2023-04-07T07:08:48.506Z,2.28
2023-04-07T07:11:17.752Z,2.35
2023-04-07T07:13:46.556Z,2.22
2023-04-07T07:16:14.727Z,2.20
2023-04-07T07:18:42.721Z,2.42
2023-04-07T07:21:10.818Z,3.75
2023-04-07T07:23:38.779Z,3.03
2023-04-07T07:26:06.793Z,3.17
2023-04-07T07:28:36.090Z,2.05
2023-04-07T07:31:12.890Z,2.88
2023-04-07T07:33:41.815Z,2.55
2023-04-07T07:36:09.897Z,3.10
2023-04-07T07:38:37.953Z,2.17
2023-04-07T07:41:07.075Z,2.10
2023-04-07T07:43:37.126Z,2.85
2023-04-07T07:46:05.415Z,2.28
2023-04-07T07:48:33.545Z,2.75
2023-04-07T07:51:01.561Z,2.97
2023-04-07T07:53:29.487Z,2.22
2023-04-07T07:55:57.747Z,2.28
2023-04-07T07:58:25.949Z,3.10
2023-04-07T08:00:55.500Z,2.83
2023-04-07T08:03:23.492Z,2.50
2023-04-07T08:05:51.567Z,2.65
2023-04-07T08:08:19.611Z,2.63
2023-04-07T08:10:47.731Z,3.38
2023-04-07T08:13:15.955Z,2.75
2023-04-07T08:15:44.058Z,1.92
2023-04-07T08:18:13.498Z,2.47
2023-04-07T08:20:41.590Z,2.00
2023-04-07T08:23:09.489Z,2.30
2023-04-07T08:25:40.002Z,2.30
2023-04-07T08:28:07.969Z,2.08
2023-04-07T08:30:36.012Z,1.70
2023-04-07T08:33:06.648Z,1.88
2023-04-07T08:35:36.241Z,2.35
2023-04-07T08:38:04.731Z,2.70
2023-04-07T08:40:34.615Z,2.78
2023-04-07T08:43:06.235Z,2.25
2023-04-07T08:45:35.254Z,2.30
2023-04-07T08:48:11.011Z,4.65
2023-04-07T08:50:41.974Z,3.58
2023-04-07T08:53:13.995Z,4.00
2023-04-07T08:55:42.242Z,2.90
2023-04-07T08:58:12.434Z,1.92
2023-04-07T09:00:42.987Z,2.10
2023-04-07T09:03:11.959Z,2.67
2023-04-07T09:05:42.012Z,1.50
2023-04-07T09:08:09.925Z,2.53
2023-04-07T09:10:38.253Z,1.95
2023-04-07T09:13:06.334Z,1.42
2023-04-07T09:15:35.851Z,2.10
2023-04-07T09:18:06.499Z,2.95
2023-04-07T09:20:57.616Z,2.22
2023-04-07T09:23:33.297Z,2.90
2023-04-07T09:26:02.805Z,3.40
2023-04-07T09:28:42.408Z,2.72
2023-04-07T09:31:10.716Z,1.80
2023-04-07T09:33:38.936Z,2.30
2023-04-07T09:36:08.777Z,2.55
2023-04-07T09:38:39.032Z,2.60
2023-04-07T09:41:08.722Z,2.10
2023-04-07T09:43:39.042Z,1.52
2023-04-07T09:46:11.553Z,2.22
2023-04-07T09:48:40.399Z,3.17
2023-04-07T09:51:11.576Z,3.15
2023-04-07T09:53:48.506Z,2.88
2023-04-07T09:56:17.823Z,2.83
2023-04-07T09:58:47.625Z,2.75
2023-04-07T10:01:18.276Z,5.18
2023-04-07T10:03:48.224Z,3.72
2023-04-07T10:06:20.843Z,4.95
2023-04-07T10:08:49.101Z,2.50
2023-04-07T10:11:18.015Z,1.90
2023-04-07T10:13:47.004Z,2.53
2023-04-07T10:16:15.812Z,3.05
2023-04-07T10:18:44.386Z,1.95
2023-04-07T10:21:16.237Z,2.33
2023-04-07T10:23:52.926Z,2.20
2023-04-07T10:26:26.308Z,2.70
2023-04-07T10:29:01.238Z,3.10
2023-04-07T10:31:29.537Z,2.05
2023-04-07T10:33:57.962Z,2.47
2023-04-07T10:36:26.114Z,2.88
2023-04-07T10:39:23.231Z,2.13
2023-04-07T10:41:51.995Z,2.20
2023-04-07T10:44:58.424Z,1.65
2023-04-07T10:47:26.335Z,3.20
2023-04-07T10:50:19.978Z,2.17
2023-04-07T10:52:48.834Z,1.90
2023-04-07T10:55:38.985Z,2.25
2023-04-07T10:58:31.009Z,2.45
2023-04-07T11:01:21.911Z,2.28
2023-04-07T11:04:01.209Z,2.00
2023-04-07T11:06:40.890Z,3.28
2023-04-07T11:09:20.626Z,2.00
2023-04-07T11:11:51.598Z,2.00
2023-04-07T11:14:28.065Z,1.73
2023-04-07T11:16:56.663Z,1.98
2023-04-07T11:19:24.821Z,2.42
2023-04-07T11:22:26.301Z,2.05
2023-04-07T11:24:57.591Z,2.17
2023-04-07T11:27:28.459Z,1.90
2023-04-07T11:29:58.156Z,2.05
2023-04-07T11:32:29.721Z,1.70
2023-04-07T11:34:59.659Z,2.20
2023-04-07T11:37:28.895Z,1.73
2023-04-07T11:39:58.634Z,1.90
2023-04-07T11:42:42.839Z,2.10
2023-04-07T11:45:19.612Z,1.58
2023-04-07T11:47:47.779Z,2.30
2023-04-07T11:50:15.826Z,2.00
2023-04-07T11:52:44.828Z,1.80
2023-04-07T11:55:27.094Z,1.45
2023-04-07T11:57:57.032Z,2.67
2023-04-07T12:00:25.221Z,1.75
2023-04-07T12:02:53.522Z,2.45
2023-04-07T12:05:27.387Z,2.03
2023-04-07T12:07:56.507Z,1.92
2023-04-07T12:10:26.681Z,2.70
2023-04-07T12:12:58.158Z,2.53
2023-04-07T12:15:27.462Z,1.38
2023-04-07T12:17:56.223Z,1.40
2023-04-07T12:20:36.008Z,1.90
2023-04-07T12:23:05.340Z,2.38
2023-04-07T12:25:33.250Z,1.83
2023-04-07T12:28:04.396Z,1.70
2023-04-07T12:30:33.098Z,1.55
2023-04-07T12:33:03.375Z,2.03
2023-04-07T12:35:32.203Z,2.10
2023-04-07T12:38:11.778Z,2.65
2023-04-07T12:40:39.847Z,2.30
2023-04-07T12:43:09.189Z,2.20
2023-04-07T12:45:37.277Z,2.90
2023-04-07T12:48:14.283Z,2.35
2023-04-07T12:50:42.601Z,2.88
2023-04-07T12:53:10.603Z,2.55
2023-04-07T12:55:40.965Z,1.98
2023-04-07T12:58:10.801Z,1.88
2023-04-07T13:00:38.659Z,1.88
2023-04-07T13:03:07.521Z,2.00
2023-04-07T13:05:37.535Z,2.10
2023-04-07T13:08:05.836Z,1.85
2023-04-07T13:10:33.701Z,1.92
2023-04-07T13:13:02.610Z,2.08
2023-04-07T13:15:32.045Z,2.25
2023-04-07T13:18:00.770Z,1.92
2023-04-07T13:20:30.450Z,1.80
2023-04-07T13:23:07.543Z,3.22
2023-04-07T13:25:38.747Z,1.85
2023-04-07T13:28:06.793Z,1.52
2023-04-07T13:30:36.775Z,1.73
2023-04-07T13:33:04.977Z,1.30
2023-04-07T13:35:35.810Z,2.25
2023-04-07T13:38:04.362Z,5.03
2023-04-07T13:40:32.637Z,2.47
2023-04-07T13:43:06.330Z,2.55
2023-04-07T13:45:38.821Z,2.40
2023-04-07T13:48:13.965Z,1.83
2023-04-07T13:50:41.919Z,2.03
2023-04-07T13:53:09.950Z,1.75
2023-04-07T13:55:40.883Z,3.38
2023-04-07T13:58:09.384Z,1.70
2023-04-07T14:00:38.694Z,2.47
2023-04-07T14:03:07.885Z,2.60
2023-04-07T14:05:38.790Z,4.45
2023-04-07T14:08:06.699Z,2.95
2023-04-07T14:10:36.183Z,3.58
2023-04-07T14:13:04.104Z,3.25
2023-04-07T14:15:32.376Z,2.00
2023-04-07T14:18:01.805Z,1.98
2023-04-07T14:20:29.885Z,3.83
2023-04-07T14:22:57.956Z,4.55
2023-04-07T14:25:28.549Z,3.58
2023-04-07T14:27:56.467Z,3.50
2023-04-07T14:30:24.663Z,4.20
2023-04-07T14:32:53.424Z,4.13
2023-04-07T14:35:23.015Z,3.03
2023-04-07T14:37:52.398Z,3.42
2023-04-07T14:40:21.270Z,2.50
2023-04-07T14:42:49.834Z,3.75
2023-04-07T14:45:18.928Z,5.45
2023-04-07T14:47:46.979Z,5.75
2023-04-07T14:50:18.508Z,2.72
2023-04-07T14:52:51.040Z,5.03
2023-04-07T14:55:20.899Z,4.85
2023-04-07T14:57:48.753Z,2.90
2023-04-07T15:00:17.268Z,4.18
2023-04-07T15:02:45.571Z,6.03
2023-04-07T15:05:16.899Z,4.45
2023-04-07T15:07:45.872Z,3.45
2023-04-07T15:10:17.180Z,3.47
2023-04-07T15:12:47.427Z,4.10
2023-04-07T15:15:18.954Z,2.67
2023-04-07T15:17:49.329Z,3.20
2023-04-07T15:20:17.463Z,3.35
2023-04-07T15:22:45.302Z,2.95
2023-04-07T15:25:15.845Z,2.05
2023-04-07T15:27:46.619Z,3.40
2023-04-07T15:30:21.914Z,3.08
2023-04-07T15:33:00.473Z,3.60
2023-04-07T15:35:28.924Z,4.43
2023-04-07T15:37:56.907Z,2.72
2023-04-07T15:40:27.338Z,3.72
2023-04-07T15:42:55.283Z,2.25
2023-04-07T15:45:23.434Z,2.58
2023-04-07T15:47:52.567Z,2.50
2023-04-07T15:50:29.157Z,3.00
2023-04-07T15:52:57.200Z,2.25
2023-04-07T15:55:25.177Z,3.08
2023-04-07T15:57:54.484Z,2.45
2023-04-07T16:00:24.362Z,2.03
2023-04-07T16:02:52.753Z,2.60
2023-04-07T16:05:26.959Z,2.70
2023-04-07T16:07:56.567Z,3.20
2023-04-07T16:10:25.209Z,1.88
2023-04-07T16:12:54.528Z,2.92
2023-04-07T16:15:36.477Z,2.00
2023-04-07T16:18:10.947Z,3.67
2023-04-07T16:20:49.464Z,2.63
2023-04-07T16:23:17.694Z,3.28
2023-04-07T16:25:45.996Z,2.47
2023-04-07T16:28:18.170Z,2.40
2023-04-07T16:30:46.411Z,2.72
2023-04-07T16:33:14.364Z,3.03
2023-04-07T16:35:42.447Z,2.97
2023-04-07T16:38:13.353Z,3.78
2023-04-07T16:41:00.601Z,2.97
2023-04-07T16:43:32.541Z,3.17
2023-04-07T16:46:03.294Z,2.90
2023-04-07T16:48:31.190Z,2.47
2023-04-07T16:50:59.118Z,2.83
2023-04-07T16:53:27.047Z,2.25
2023-04-07T16:55:55.087Z,2.70
2023-04-07T16:58:23.135Z,3.17
2023-04-07T17:00:52.425Z,3.70
2023-04-07T17:03:20.471Z,2.80
2023-04-07T17:05:49.414Z,2.45
2023-04-07T17:08:17.314Z,3.83
2023-04-07T17:10:45.250Z,3.72
2023-04-07T17:13:13.232Z,2.65
2023-04-07T17:15:41.233Z,2.80
2023-04-07T17:18:10.561Z,3.60
2023-04-07T17:20:39.761Z,3.22
2023-04-07T17:23:08.514Z,2.88
2023-04-07T17:25:36.474Z,3.40
2023-04-07T17:28:04.470Z,2.47
2023-04-07T17:30:32.957Z,2.75
2023-04-07T17:33:04.102Z,4.57
2023-04-07T17:35:35.183Z,3.20
2023-04-07T17:38:04.593Z,3.08
2023-04-07T17:40:33.426Z,2.20
2023-04-07T17:43:26.097Z,2.33
2023-04-07T17:45:54.815Z,3.42
2023-04-07T17:48:27.631Z,3.05
2023-04-07T17:50:57.380Z,3.55
2023-04-07T17:53:25.523Z,3.80
2023-04-07T17:55:53.989Z,2.60
2023-04-07T17:58:27.301Z,3.83
2023-04-07T18:00:55.543Z,5.43
2023-04-07T18:03:23.733Z,3.70
2023-04-07T18:05:52.507Z,4.43
2023-04-07T18:08:22.083Z,4.65
2023-04-07T18:10:50.296Z,3.33
2023-04-07T18:13:18.581Z,3.75
2023-04-07T18:15:48.343Z,2.67
2023-04-07T18:18:18.883Z,3.20
2023-04-07T18:20:48.134Z,3.45
2023-04-07T18:23:16.206Z,3.28
2023-04-07T18:25:47.494Z,3.28
2023-04-07T18:28:17.102Z,3.75
2023-04-07T18:30:45.239Z,5.00
2023-04-07T18:33:14.195Z,4.22
2023-04-07T18:35:43.457Z,3.50
2023-04-07T18:38:11.912Z,3.65
2023-04-07T18:40:40.260Z,4.38
2023-04-07T18:43:09.744Z,4.25
2023-04-07T18:45:40.814Z,7.65
2023-04-07T18:48:11.105Z,13.20
2023-04-07T18:50:39.023Z,18.05
2023-04-07T18:53:07.542Z,12.07
2023-04-07T18:55:37.789Z,10.90
2023-04-07T18:58:06.594Z,11.75
2023-04-07T19:00:36.078Z,12.02
2023-04-07T19:03:06.230Z,12.15
2023-04-07T19:05:34.761Z,9.95
2023-04-07T19:08:02.806Z,12.40
2023-04-07T19:10:32.268Z,10.50
2023-04-07T19:13:03.275Z,14.43
2023-04-07T19:15:38.456Z,8.82
2023-04-07T19:18:12.668Z,10.30
2023-04-07T19:20:41.251Z,8.45
2023-04-07T19:23:09.300Z,8.23
2023-04-07T19:25:37.221Z,11.68
2023-04-07T19:28:06.485Z,11.45
2023-04-07T19:30:35.876Z,8.80
2023-04-07T19:33:04.091Z,8.45
2023-04-07T19:35:32.713Z,10.40
2023-04-07T19:38:00.994Z,13.30
2023-04-07T19:40:31.469Z,9.23
2023-04-07T19:43:03.289Z,8.73
2023-04-07T19:45:31.346Z,9.18
2023-04-07T19:48:01.248Z,11.45
2023-04-07T19:50:29.378Z,8.20
2023-04-07T19:52:57.428Z,7.45
2023-04-07T19:55:25.946Z,11.25
2023-04-07T19:57:53.959Z,12.00
2023-04-07T20:00:22.135Z,9.20
2023-04-07T20:02:50.872Z,9.55
2023-04-07T20:05:20.997Z,9.95
2023-04-07T20:07:49.073Z,7.63
2023-04-07T20:10:17.222Z,7.03
2023-04-07T20:12:45.353Z,8.80
2023-04-07T20:15:13.515Z,8.55
2023-04-07T20:17:41.819Z,7.47
2023-04-07T20:20:12.482Z,5.65
2023-04-07T20:22:41.841Z,10.57
2023-04-07T20:25:10.089Z,7.57
2023-04-07T20:27:40.904Z,11.43
2023-04-07T20:30:12.083Z,10.57
2023-04-07T20:32:40.150Z,8.45
2023-04-07T20:35:09.578Z,7.00
2023-04-07T20:37:40.346Z,6.45
2023-04-07T20:40:11.777Z,8.13
2023-04-07T20:42:39.818Z,7.13
2023-04-07T20:45:08.914Z,5.63
2023-04-07T20:47:37.167Z,7.38
2023-04-07T20:50:05.648Z,8.50
2023-04-07T20:52:33.675Z,7.32
2023-04-07T20:55:01.777Z,7.32
2023-04-07T20:57:32.141Z,5.55
2023-04-07T21:00:00.444Z,6.43
2023-04-07T21:02:28.499Z,6.57
2023-04-07T21:04:56.787Z,5.43
2023-04-07T21:07:25.458Z,6.70
2023-04-07T21:09:53.410Z,8.25
2023-04-07T21:12:21.477Z,5.45
2023-04-07T21:14:51.016Z,7.60
2023-04-07T21:17:20.417Z,6.63
2023-04-07T21:19:48.379Z,4.28
2023-04-07T21:22:19.011Z,7.22
2023-04-07T21:24:50.000Z,7.18
2023-04-07T21:27:20.074Z,5.35
2023-04-07T21:29:52.032Z,7.05
2023-04-07T21:32:22.014Z,5.63
2023-04-07T21:34:53.053Z,5.88
2023-04-07T21:37:21.100Z,5.38
2023-04-07T21:39:48.984Z,6.43
2023-04-07T21:42:17.115Z,7.13
2023-04-07T21:44:45.057Z,11.60
2023-04-07T21:47:13.171Z,10.93
2023-04-07T21:49:42.483Z,8.55
2023-04-07T21:52:10.800Z,8.10
2023-04-07T21:54:39.328Z,6.75
2023-04-07T21:57:09.372Z,8.27
2023-04-07T21:59:39.762Z,6.18
2023-04-07T22:02:08.162Z,8.00
2023-04-07T22:04:36.219Z,6.05
2023-04-07T22:07:07.988Z,6.00
2023-04-07T22:09:36.846Z,5.65
2023-04-07T22:12:07.530Z,4.78
2023-04-07T22:14:38.521Z,5.00
2023-04-07T22:17:07.158Z,6.00
2023-04-07T22:19:35.584Z,4.82
2023-04-07T22:22:09.655Z,4.75
2023-04-07T22:24:37.545Z,7.43
2023-04-07T22:27:05.735Z,4.50
2023-04-07T22:29:33.774Z,4.18
2023-04-07T22:32:01.626Z,7.15
2023-04-07T22:34:32.089Z,5.18
2023-04-07T22:36:59.964Z,6.78
2023-04-07T22:39:29.256Z,5.43
2023-04-07T22:41:57.361Z,6.05
2023-04-07T22:44:25.554Z,5.38
2023-04-07T22:46:53.716Z,4.72
2023-04-07T22:49:24.502Z,6.93
2023-04-07T22:51:52.408Z,4.93
2023-04-07T22:54:22.942Z,6.82
2023-04-07T22:56:52.202Z,6.68
2023-04-07T22:59:22.898Z,4.43
2023-04-07T23:01:50.918Z,6.88
2023-04-07T23:04:19.957Z,6.00
2023-04-07T23:06:47.971Z,6.05
2023-04-07T23:09:16.322Z,5.22
2023-04-07T23:11:47.228Z,4.72
2023-04-07T23:14:16.554Z,5.38
2023-04-07T23:16:44.519Z,6.13
2023-04-07T23:19:15.463Z,6.30
2023-04-07T23:21:43.828Z,6.32
2023-04-07T23:24:11.836Z,4.90
2023-04-07T23:26:39.809Z,5.38
2023-04-07T23:29:07.680Z,5.93
2023-04-07T23:31:36.956Z,4.30
2023-04-07T23:34:05.473Z,5.43
2023-04-07T23:36:36.046Z,5.22
2023-04-07T23:39:06.928Z,4.35
2023-04-07T23:41:41.000Z,4.45
2023-04-07T23:44:08.921Z,4.28
2023-04-07T23:46:38.438Z,4.32
2023-04-07T23:49:06.459Z,2.53
2023-04-07T23:51:34.780Z,4.22
2023-04-07T23:54:02.981Z,4.18
2023-04-07T23:56:30.904Z,4.10
2023-04-07T23:58:58.797Z,3.60
